sensor_id;sensor_type;location;lat;lon;timestamp;temperature;humidity
3548;DHT22;1788;49.400;11.092;2023-06-19T00:01:09;23.60;40.40
3548;DHT22;1788;49.400;11.092;2023-06-19T00:03:36;23.60;40.30
3548;DHT22;1788;49.400;11.092;2023-06-19T00:06:04;23.60;40.70
3548;DHT22;1788;49.400;11.092;2023-06-19T00:08:30;23.60;40.30
3548;DHT22;1788;49.400;11.092;2023-06-19T00:10:57;23.60;40.40
3548;DHT22;1788;49.400;11.092;2023-06-19T00:13:23;23.60;40.40
3548;DHT22;1788;49.400;11.092;2023-06-19T00:15:50;23.60;40.40
3548;DHT22;1788;49.400;11.092;2023-06-19T00:18:16;23.60;40.30
3548;DHT22;1788;49.400;11.092;2023-06-19T00:20:44;23.60;40.40
3548;DHT22;1788;49.400;11.092;2023-06-19T00:23:10;23.60;40.40
3548;DHT22;1788;49.400;11.092;2023-06-19T00:25:38;23.60;40.40
3548;DHT22;1788;49.400;11.092;2023-06-19T00:28:04;23.60;40.30
3548;DHT22;1788;49.400;11.092;2023-06-19T00:30:32;23.60;40.20
3548;DHT22;1788;49.400;11.092;2023-06-19T00:32:58;23.60;40.20
3548;DHT22;1788;49.400;11.092;2023-06-19T00:35:25;23.60;40.10
3548;DHT22;1788;49.400;11.092;2023-06-19T00:37:52;23.60;40.00
3548;DHT22;1788;49.400;11.092;2023-06-19T00:42:46;23.60;40.00
3548;DHT22;1788;49.400;11.092;2023-06-19T00:45:12;23.60;40.00
3548;DHT22;1788;49.400;11.092;2023-06-19T00:47:39;23.60;39.90
3548;DHT22;1788;49.400;11.092;2023-06-19T00:50:06;23.60;39.80
3548;DHT22;1788;49.400;11.092;2023-06-19T00:52:33;23.50;39.60
3548;DHT22;1788;49.400;11.092;2023-06-19T00:55:00;23.50;39.50
3548;DHT22;1788;49.400;11.092;2023-06-19T00:57:27;23.60;39.50
3548;DHT22;1788;49.400;11.092;2023-06-19T00:59:54;23.50;39.40
3548;DHT22;1788;49.400;11.092;2023-06-19T01:02:21;23.50;39.40
3548;DHT22;1788;49.400;11.092;2023-06-19T01:04:48;23.50;39.40
3548;DHT22;1788;49.400;11.092;2023-06-19T01:07:15;23.50;39.70
3548;DHT22;1788;49.400;11.092;2023-06-19T01:09:44;23.50;39.70
3548;DHT22;1788;49.400;11.092;2023-06-19T01:14:38;23.40;40.20
3548;DHT22;1788;49.400;11.092;2023-06-19T01:17:03;23.40;40.30
3548;DHT22;1788;49.400;11.092;2023-06-19T01:19:30;23.40;40.50
3548;DHT22;1788;49.400;11.092;2023-06-19T01:21:56;23.40;40.70
3548;DHT22;1788;49.400;11.092;2023-06-19T01:24:24;23.30;41.10
3548;DHT22;1788;49.400;11.092;2023-06-19T01:26:50;23.20;40.90
3548;DHT22;1788;49.400;11.092;2023-06-19T01:29:18;23.20;41.40
3548;DHT22;1788;49.400;11.092;2023-06-19T01:34:12;23.10;41.90
3548;DHT22;1788;49.400;11.092;2023-06-19T01:36:38;23.10;41.80
3548;DHT22;1788;49.400;11.092;2023-06-19T01:39:05;23.10;42.00
3548;DHT22;1788;49.400;11.092;2023-06-19T01:41:32;23.00;42.10
3548;DHT22;1788;49.400;11.092;2023-06-19T01:43:58;23.00;42.10
3548;DHT22;1788;49.400;11.092;2023-06-19T01:46:25;22.90;42.10
3548;DHT22;1788;49.400;11.092;2023-06-19T01:48:52;22.90;42.00
3548;DHT22;1788;49.400;11.092;2023-06-19T01:51:18;22.80;41.90
3548;DHT22;1788;49.400;11.092;2023-06-19T01:53:45;22.80;42.00
3548;DHT22;1788;49.400;11.092;2023-06-19T01:56:11;22.80;42.00
3548;DHT22;1788;49.400;11.092;2023-06-19T01:58:39;22.70;41.90
3548;DHT22;1788;49.400;11.092;2023-06-19T02:01:05;22.60;41.90
3548;DHT22;1788;49.400;11.092;2023-06-19T02:03:33;22.50;42.00
3548;DHT22;1788;49.400;11.092;2023-06-19T02:05:59;22.50;42.00
3548;DHT22;1788;49.400;11.092;2023-06-19T02:08:27;22.50;42.20
3548;DHT22;1788;49.400;11.092;2023-06-19T02:10:53;22.50;42.20
3548;DHT22;1788;49.400;11.092;2023-06-19T02:13:21;22.40;42.40
3548;DHT22;1788;49.400;11.092;2023-06-19T02:15:48;22.40;42.40
3548;DHT22;1788;49.400;11.092;2023-06-19T02:18:14;22.40;42.40
3548;DHT22;1788;49.400;11.092;2023-06-19T02:20:41;22.40;42.50
3548;DHT22;1788;49.400;11.092;2023-06-19T02:23:08;22.40;42.90
3548;DHT22;1788;49.400;11.092;2023-06-19T02:25:35;22.30;42.70
3548;DHT22;1788;49.400;11.092;2023-06-19T02:28:02;22.30;42.90
3548;DHT22;1788;49.400;11.092;2023-06-19T02:30:29;22.30;42.90
3548;DHT22;1788;49.400;11.092;2023-06-19T02:32:56;22.20;42.90
3548;DHT22;1788;49.400;11.092;2023-06-19T02:35:23;22.20;42.90
3548;DHT22;1788;49.400;11.092;2023-06-19T02:37:50;22.10;43.00
3548;DHT22;1788;49.400;11.092;2023-06-19T02:40:17;22.10;43.00
3548;DHT22;1788;49.400;11.092;2023-06-19T02:42:44;22.00;43.10
3548;DHT22;1788;49.400;11.092;2023-06-19T02:45:11;22.00;43.00
3548;DHT22;1788;49.400;11.092;2023-06-19T02:47:38;22.00;43.20
3548;DHT22;1788;49.400;11.092;2023-06-19T02:50:05;21.90;43.10
3548;DHT22;1788;49.400;11.092;2023-06-19T02:52:32;21.90;43.20
3548;DHT22;1788;49.400;11.092;2023-06-19T02:55:00;21.90;43.10
3548;DHT22;1788;49.400;11.092;2023-06-19T02:57:26;21.90;43.00
3548;DHT22;1788;49.400;11.092;2023-06-19T02:59:53;21.90;42.90
3548;DHT22;1788;49.400;11.092;2023-06-19T03:02:20;21.90;42.80
3548;DHT22;1788;49.400;11.092;2023-06-19T03:04:47;21.90;42.80
3548;DHT22;1788;49.400;11.092;2023-06-19T03:07:14;22.00;42.90
3548;DHT22;1788;49.400;11.092;2023-06-19T03:09:41;22.00;42.90
3548;DHT22;1788;49.400;11.092;2023-06-19T03:12:08;22.00;42.90
3548;DHT22;1788;49.400;11.092;2023-06-19T03:14:35;22.10;43.00
3548;DHT22;1788;49.400;11.092;2023-06-19T03:17:02;22.10;43.00
3548;DHT22;1788;49.400;11.092;2023-06-19T03:19:29;22.10;43.30
3548;DHT22;1788;49.400;11.092;2023-06-19T03:21:56;22.10;43.30
3548;DHT22;1788;49.400;11.092;2023-06-19T03:24:23;22.20;43.80
3548;DHT22;1788;49.400;11.092;2023-06-19T03:26:50;22.20;43.30
3548;DHT22;1788;49.400;11.092;2023-06-19T03:29:16;22.20;43.20
3548;DHT22;1788;49.400;11.092;2023-06-19T03:31:43;22.30;43.10
3548;DHT22;1788;49.400;11.092;2023-06-19T03:34:10;22.30;43.00
3548;DHT22;1788;49.400;11.092;2023-06-19T03:36:36;22.40;42.90
3548;DHT22;1788;49.400;11.092;2023-06-19T03:39:04;22.40;42.90
3548;DHT22;1788;49.400;11.092;2023-06-19T03:41:30;22.40;42.90
3548;DHT22;1788;49.400;11.092;2023-06-19T03:43:57;22.50;42.90
3548;DHT22;1788;49.400;11.092;2023-06-19T03:46:24;22.50;42.80
3548;DHT22;1788;49.400;11.092;2023-06-19T03:48:50;22.50;42.80
3548;DHT22;1788;49.400;11.092;2023-06-19T03:51:18;22.60;42.90
3548;DHT22;1788;49.400;11.092;2023-06-19T03:53:44;22.60;42.90
3548;DHT22;1788;49.400;11.092;2023-06-19T03:56:11;22.60;42.80
3548;DHT22;1788;49.400;11.092;2023-06-19T03:58:38;22.70;42.90
3548;DHT22;1788;49.400;11.092;2023-06-19T04:01:04;22.70;42.90
3548;DHT22;1788;49.400;11.092;2023-06-19T04:03:31;22.70;42.90
3548;DHT22;1788;49.400;11.092;2023-06-19T04:05:58;22.70;43.10
3548;DHT22;1788;49.400;11.092;2023-06-19T04:08:25;22.70;43.20
3548;DHT22;1788;49.400;11.092;2023-06-19T04:10:53;22.70;43.30
3548;DHT22;1788;49.400;11.092;2023-06-19T04:13:20;22.70;43.20
3548;DHT22;1788;49.400;11.092;2023-06-19T04:15:47;22.70;43.40
3548;DHT22;1788;49.400;11.092;2023-06-19T04:18:13;22.70;43.40
3548;DHT22;1788;49.400;11.092;2023-06-19T04:20:42;22.80;44.30
3548;DHT22;1788;49.400;11.092;2023-06-19T04:23:08;22.70;43.60
3548;DHT22;1788;49.400;11.092;2023-06-19T04:25:35;22.80;43.70
3548;DHT22;1788;49.400;11.092;2023-06-19T04:28:01;22.80;43.70
3548;DHT22;1788;49.400;11.092;2023-06-19T04:30:29;22.80;43.80
3548;DHT22;1788;49.400;11.092;2023-06-19T04:32:57;22.80;43.80
3548;DHT22;1788;49.400;11.092;2023-06-19T04:35:23;22.90;44.20
3548;DHT22;1788;49.400;11.092;2023-06-19T04:37:49;22.80;43.90
3548;DHT22;1788;49.400;11.092;2023-06-19T04:40:17;22.90;44.10
3548;DHT22;1788;49.400;11.092;2023-06-19T04:42:43;22.90;44.10
3548;DHT22;1788;49.400;11.092;2023-06-19T04:45:11;23.00;44.30
3548;DHT22;1788;49.400;11.092;2023-06-19T04:47:37;23.00;44.30
3548;DHT22;1788;49.400;11.092;2023-06-19T04:50:06;23.00;44.30
3548;DHT22;1788;49.400;11.092;2023-06-19T04:52:31;23.00;44.30
3548;DHT22;1788;49.400;11.092;2023-06-19T04:54:58;23.00;44.30
3548;DHT22;1788;49.400;11.092;2023-06-19T04:57:25;23.10;45.10
3548;DHT22;1788;49.400;11.092;2023-06-19T04:59:53;23.10;44.50
3548;DHT22;1788;49.400;11.092;2023-06-19T05:02:21;23.20;44.60
3548;DHT22;1788;49.400;11.092;2023-06-19T05:04:47;23.10;44.50
3548;DHT22;1788;49.400;11.092;2023-06-19T05:07:15;23.30;44.70
3548;DHT22;1788;49.400;11.092;2023-06-19T05:09:41;23.30;45.20
3548;DHT22;1788;49.400;11.092;2023-06-19T05:12:09;23.40;44.20
3548;DHT22;1788;49.400;11.092;2023-06-19T05:14:35;23.40;44.70
3548;DHT22;1788;49.400;11.092;2023-06-19T05:17:02;23.50;44.80
3548;DHT22;1788;49.400;11.092;2023-06-19T05:19:28;23.50;44.80
3548;DHT22;1788;49.400;11.092;2023-06-19T05:21:55;23.60;44.90
3548;DHT22;1788;49.400;11.092;2023-06-19T05:24:22;23.70;44.90
3548;DHT22;1788;49.400;11.092;2023-06-19T05:26:48;23.70;44.80
3548;DHT22;1788;49.400;11.092;2023-06-19T05:29:15;23.80;44.80
3548;DHT22;1788;49.400;11.092;2023-06-19T05:31:42;23.90;44.80
3548;DHT22;1788;49.400;11.092;2023-06-19T05:34:08;23.90;44.80
3548;DHT22;1788;49.400;11.092;2023-06-19T05:36:35;24.10;44.80
3548;DHT22;1788;49.400;11.092;2023-06-19T05:39:02;24.10;44.80
3548;DHT22;1788;49.400;11.092;2023-06-19T05:41:29;24.30;44.90
3548;DHT22;1788;49.400;11.092;2023-06-19T05:43:56;24.30;44.90
3548;DHT22;1788;49.400;11.092;2023-06-19T05:46:23;24.40;45.10
3548;DHT22;1788;49.400;11.092;2023-06-19T05:48:50;24.40;44.90
3548;DHT22;1788;49.400;11.092;2023-06-19T05:51:17;24.50;44.80
3548;DHT22;1788;49.400;11.092;2023-06-19T05:53:43;24.60;44.80
3548;DHT22;1788;49.400;11.092;2023-06-19T05:56:10;24.60;44.70
3548;DHT22;1788;49.400;11.092;2023-06-19T05:58:37;24.60;44.60
3548;DHT22;1788;49.400;11.092;2023-06-19T06:01:04;24.70;44.90
3548;DHT22;1788;49.400;11.092;2023-06-19T06:03:31;24.70;44.60
3548;DHT22;1788;49.400;11.092;2023-06-19T06:05:58;24.90;45.20
3548;DHT22;1788;49.400;11.092;2023-06-19T06:08:25;24.90;44.60
3548;DHT22;1788;49.400;11.092;2023-06-19T06:10:52;25.00;44.60
3548;DHT22;1788;49.400;11.092;2023-06-19T06:13:19;25.00;44.60
3548;DHT22;1788;49.400;11.092;2023-06-19T06:15:46;25.00;45.20
3548;DHT22;1788;49.400;11.092;2023-06-19T06:18:13;25.00;44.70
3548;DHT22;1788;49.400;11.092;2023-06-19T06:20:40;25.00;45.00
3548;DHT22;1788;49.400;11.092;2023-06-19T06:23:07;25.00;45.00
3548;DHT22;1788;49.400;11.092;2023-06-19T06:25:34;25.10;45.30
3548;DHT22;1788;49.400;11.092;2023-06-19T06:28:01;25.00;45.50
3548;DHT22;1788;49.400;11.092;2023-06-19T06:30:27;25.00;45.90
3548;DHT22;1788;49.400;11.092;2023-06-19T06:32:55;25.00;46.50
3548;DHT22;1788;49.400;11.092;2023-06-19T06:35:21;25.00;46.60
3548;DHT22;1788;49.400;11.092;2023-06-19T06:37:49;25.00;46.70
3548;DHT22;1788;49.400;11.092;2023-06-19T06:40:17;25.00;46.70
3548;DHT22;1788;49.400;11.092;2023-06-19T06:42:43;25.00;46.80
3548;DHT22;1788;49.400;11.092;2023-06-19T06:45:09;25.00;46.80
3548;DHT22;1788;49.400;11.092;2023-06-19T06:47:37;25.00;46.90
3548;DHT22;1788;49.400;11.092;2023-06-19T06:50:04;25.00;46.90
3548;DHT22;1788;49.400;11.092;2023-06-19T06:52:31;25.00;46.90
3548;DHT22;1788;49.400;11.092;2023-06-19T06:54:58;25.00;46.70
3548;DHT22;1788;49.400;11.092;2023-06-19T06:57:25;25.00;46.70
3548;DHT22;1788;49.400;11.092;2023-06-19T06:59:52;25.00;46.90
3548;DHT22;1788;49.400;11.092;2023-06-19T07:02:19;25.00;46.90
3548;DHT22;1788;49.400;11.092;2023-06-19T07:04:47;25.20;47.00
3548;DHT22;1788;49.400;11.092;2023-06-19T07:07:14;25.20;47.00
3548;DHT22;1788;49.400;11.092;2023-06-19T07:09:41;25.20;47.00
3548;DHT22;1788;49.400;11.092;2023-06-19T07:12:08;25.30;47.10
3548;DHT22;1788;49.400;11.092;2023-06-19T07:14:35;25.30;47.00
3548;DHT22;1788;49.400;11.092;2023-06-19T07:17:02;25.40;47.10
3548;DHT22;1788;49.400;11.092;2023-06-19T07:19:29;25.30;47.00
3548;DHT22;1788;49.400;11.092;2023-06-19T07:21:56;25.40;47.00
3548;DHT22;1788;49.400;11.092;2023-06-19T07:24:23;25.40;47.00
3548;DHT22;1788;49.400;11.092;2023-06-19T07:26:50;25.40;47.50
3548;DHT22;1788;49.400;11.092;2023-06-19T07:29:19;25.50;47.10
3548;DHT22;1788;49.400;11.092;2023-06-19T07:31:45;25.40;46.90
3548;DHT22;1788;49.400;11.092;2023-06-19T07:34:12;25.40;46.90
3548;DHT22;1788;49.400;11.092;2023-06-19T07:36:39;25.40;47.00
3548;DHT22;1788;49.400;11.092;2023-06-19T07:39:05;25.50;47.10
3548;DHT22;1788;49.400;11.092;2023-06-19T07:41:32;25.50;47.10
3548;DHT22;1788;49.400;11.092;2023-06-19T07:43:59;25.70;47.10
3548;DHT22;1788;49.400;11.092;2023-06-19T07:46:26;25.70;47.00
3548;DHT22;1788;49.400;11.092;2023-06-19T07:48:53;25.80;47.00
3548;DHT22;1788;49.400;11.092;2023-06-19T07:51:20;25.80;47.00
3548;DHT22;1788;49.400;11.092;2023-06-19T07:53:46;25.90;47.00
3548;DHT22;1788;49.400;11.092;2023-06-19T07:56:13;26.10;47.00
3548;DHT22;1788;49.400;11.092;2023-06-19T07:58:40;26.20;46.80
3548;DHT22;1788;49.400;11.092;2023-06-19T08:01:06;26.30;46.70
3548;DHT22;1788;49.400;11.092;2023-06-19T08:03:33;26.30;46.60
3548;DHT22;1788;49.400;11.092;2023-06-19T08:05:59;26.40;46.60
3548;DHT22;1788;49.400;11.092;2023-06-19T08:08:26;26.40;46.50
3548;DHT22;1788;49.400;11.092;2023-06-19T08:10:53;26.40;46.40
3548;DHT22;1788;49.400;11.092;2023-06-19T08:13:21;26.40;46.40
3548;DHT22;1788;49.400;11.092;2023-06-19T08:15:48;26.30;46.30
3548;DHT22;1788;49.400;11.092;2023-06-19T08:18:14;26.30;46.30
3548;DHT22;1788;49.400;11.092;2023-06-19T08:20:42;26.30;46.40
3548;DHT22;1788;49.400;11.092;2023-06-19T08:23:09;26.30;46.40
3548;DHT22;1788;49.400;11.092;2023-06-19T08:25:36;26.20;46.40
3548;DHT22;1788;49.400;11.092;2023-06-19T08:28:04;26.20;46.50
3548;DHT22;1788;49.400;11.092;2023-06-19T08:30:31;26.20;46.50
3548;DHT22;1788;49.400;11.092;2023-06-19T08:32:58;26.20;46.50
3548;DHT22;1788;49.400;11.092;2023-06-19T08:35:25;26.20;46.50
3548;DHT22;1788;49.400;11.092;2023-06-19T08:37:53;26.30;46.50
3548;DHT22;1788;49.400;11.092;2023-06-19T08:40:20;26.30;47.30
3548;DHT22;1788;49.400;11.092;2023-06-19T08:42:47;26.30;46.50
3548;DHT22;1788;49.400;11.092;2023-06-19T08:45:13;26.30;46.50
3548;DHT22;1788;49.400;11.092;2023-06-19T08:47:40;26.30;46.50
3548;DHT22;1788;49.400;11.092;2023-06-19T08:50:06;26.30;46.50
3548;DHT22;1788;49.400;11.092;2023-06-19T08:52:34;26.40;46.60
3548;DHT22;1788;49.400;11.092;2023-06-19T08:55:00;26.30;46.50
3548;DHT22;1788;49.400;11.092;2023-06-19T08:59:55;26.40;46.50
3548;DHT22;1788;49.400;11.092;2023-06-19T09:02:23;26.40;46.40
3548;DHT22;1788;49.400;11.092;2023-06-19T09:04:49;26.40;46.50
3548;DHT22;1788;49.400;11.092;2023-06-19T09:07:16;26.40;46.40
3548;DHT22;1788;49.400;11.092;2023-06-19T09:12:12;26.60;46.50
3548;DHT22;1788;49.400;11.092;2023-06-19T09:14:38;26.50;46.40
3548;DHT22;1788;49.400;11.092;2023-06-19T09:17:05;26.70;46.50
3548;DHT22;1788;49.400;11.092;2023-06-19T09:19:31;26.80;46.40
3548;DHT22;1788;49.400;11.092;2023-06-19T09:24:32;26.80;46.20
3548;DHT22;1788;49.400;11.092;2023-06-19T09:26:52;26.90;46.20
3548;DHT22;1788;49.400;11.092;2023-06-19T09:29:19;27.00;46.40
3548;DHT22;1788;49.400;11.092;2023-06-19T09:31:46;27.00;46.30
3548;DHT22;1788;49.400;11.092;2023-06-19T09:34:13;27.10;46.10
3548;DHT22;1788;49.400;11.092;2023-06-19T09:36:40;27.10;46.20
3548;DHT22;1788;49.400;11.092;2023-06-19T09:39:06;27.20;46.10
3548;DHT22;1788;49.400;11.092;2023-06-19T09:41:33;27.40;45.90
3548;DHT22;1788;49.400;11.092;2023-06-19T09:43:59;27.60;45.70
3548;DHT22;1788;49.400;11.092;2023-06-19T09:46:28;27.70;45.60
3548;DHT22;1788;49.400;11.092;2023-06-19T09:48:53;27.80;45.40
3548;DHT22;1788;49.400;11.092;2023-06-19T09:53:47;27.90;45.20
3548;DHT22;1788;49.400;11.092;2023-06-19T09:56:13;28.00;45.10
3548;DHT22;1788;49.400;11.092;2023-06-19T10:01:07;28.10;44.90
3548;DHT22;1788;49.400;11.092;2023-06-19T10:03:35;28.30;44.70
3548;DHT22;1788;49.400;11.092;2023-06-19T10:06:03;28.30;44.70
3548;DHT22;1788;49.400;11.092;2023-06-19T10:10:57;28.40;44.50
3548;DHT22;1788;49.400;11.092;2023-06-19T10:13:30;28.50;44.60
3548;DHT22;1788;49.400;11.092;2023-06-19T10:15:51;28.50;44.60
3548;DHT22;1788;49.400;11.092;2023-06-19T10:18:17;28.60;44.50
3548;DHT22;1788;49.400;11.092;2023-06-19T10:20:45;28.60;44.40
3548;DHT22;1788;49.400;11.092;2023-06-19T10:23:13;28.60;44.30
3548;DHT22;1788;49.400;11.092;2023-06-19T10:25:40;28.60;44.30
3548;DHT22;1788;49.400;11.092;2023-06-19T10:30:33;28.90;44.20
3548;DHT22;1788;49.400;11.092;2023-06-19T10:33:00;29.10;44.00
3548;DHT22;1788;49.400;11.092;2023-06-19T10:35:36;29.30;43.80
3548;DHT22;1788;49.400;11.092;2023-06-19T10:37:56;29.30;43.80
3548;DHT22;1788;49.400;11.092;2023-06-19T10:40:23;29.30;44.20
3548;DHT22;1788;49.400;11.092;2023-06-19T10:42:50;29.30;43.60
3548;DHT22;1788;49.400;11.092;2023-06-19T10:45:17;29.30;43.60
3548;DHT22;1788;49.400;11.092;2023-06-19T10:47:43;29.40;43.70
3548;DHT22;1788;49.400;11.092;2023-06-19T10:50:11;29.40;43.70
3548;DHT22;1788;49.400;11.092;2023-06-19T10:52:39;29.30;43.80
3548;DHT22;1788;49.400;11.092;2023-06-19T10:55:04;29.30;43.80
3548;DHT22;1788;49.400;11.092;2023-06-19T10:57:31;29.40;43.70
3548;DHT22;1788;49.400;11.092;2023-06-19T10:59:58;29.40;43.70
3548;DHT22;1788;49.400;11.092;2023-06-19T11:02:25;29.50;43.60
3548;DHT22;1788;49.400;11.092;2023-06-19T11:07:18;29.60;43.50
3548;DHT22;1788;49.400;11.092;2023-06-19T11:09:45;29.70;43.40
3548;DHT22;1788;49.400;11.092;2023-06-19T11:12:12;29.70;43.20
3548;DHT22;1788;49.400;11.092;2023-06-19T11:14:39;29.80;42.90
3548;DHT22;1788;49.400;11.092;2023-06-19T11:17:06;29.80;42.90
3548;DHT22;1788;49.400;11.092;2023-06-19T11:19:33;29.90;42.70
3548;DHT22;1788;49.400;11.092;2023-06-19T11:22:00;29.90;42.70
3548;DHT22;1788;49.400;11.092;2023-06-19T11:24:27;30.00;42.70
3548;DHT22;1788;49.400;11.092;2023-06-19T11:26:55;30.10;42.70
3548;DHT22;1788;49.400;11.092;2023-06-19T11:29:22;30.30;42.60
3548;DHT22;1788;49.400;11.092;2023-06-19T11:31:47;30.40;42.30
3548;DHT22;1788;49.400;11.092;2023-06-19T11:34:14;30.60;42.50
3548;DHT22;1788;49.400;11.092;2023-06-19T11:36:40;30.70;41.90
3548;DHT22;1788;49.400;11.092;2023-06-19T11:39:09;30.90;41.70
3548;DHT22;1788;49.400;11.092;2023-06-19T11:41:34;31.10;41.50
3548;DHT22;1788;49.400;11.092;2023-06-19T11:44:03;31.40;41.00
3548;DHT22;1788;49.400;11.092;2023-06-19T11:46:29;31.40;41.00
3548;DHT22;1788;49.400;11.092;2023-06-19T11:48:56;31.50;40.50
3548;DHT22;1788;49.400;11.092;2023-06-19T11:51:22;31.50;40.50
3548;DHT22;1788;49.400;11.092;2023-06-19T11:53:49;31.50;39.80
3548;DHT22;1788;49.400;11.092;2023-06-19T11:56:16;31.50;40.30
3548;DHT22;1788;49.400;11.092;2023-06-19T11:58:43;31.40;40.10
3548;DHT22;1788;49.400;11.092;2023-06-19T12:01:09;31.30;40.00
3548;DHT22;1788;49.400;11.092;2023-06-19T12:03:36;31.30;40.10
3548;DHT22;1788;49.400;11.092;2023-06-19T12:06:03;31.30;40.00
3548;DHT22;1788;49.400;11.092;2023-06-19T12:08:30;31.30;40.00
3548;DHT22;1788;49.400;11.092;2023-06-19T12:10:57;31.40;40.40
3548;DHT22;1788;49.400;11.092;2023-06-19T12:13:24;31.40;39.90
3548;DHT22;1788;49.400;11.092;2023-06-19T12:15:51;31.60;39.90
3548;DHT22;1788;49.400;11.092;2023-06-19T12:18:18;31.60;39.70
3548;DHT22;1788;49.400;11.092;2023-06-19T12:20:44;31.70;39.50
3548;DHT22;1788;49.400;11.092;2023-06-19T12:23:11;31.80;39.30
3548;DHT22;1788;49.400;11.092;2023-06-19T12:25:38;31.90;39.10
3548;DHT22;1788;49.400;11.092;2023-06-19T12:28:05;31.90;38.70
3548;DHT22;1788;49.400;11.092;2023-06-19T12:30:32;31.90;38.60
3548;DHT22;1788;49.400;11.092;2023-06-19T12:32:59;31.80;38.80
3548;DHT22;1788;49.400;11.092;2023-06-19T12:35:26;31.80;38.50
3548;DHT22;1788;49.400;11.092;2023-06-19T12:37:53;31.70;38.40
3548;DHT22;1788;49.400;11.092;2023-06-19T12:40:19;31.60;38.40
3548;DHT22;1788;49.400;11.092;2023-06-19T12:42:46;31.50;38.40
3548;DHT22;1788;49.400;11.092;2023-06-19T12:45:12;31.40;38.50
3548;DHT22;1788;49.400;11.092;2023-06-19T12:47:39;31.30;38.50
3548;DHT22;1788;49.400;11.092;2023-06-19T12:50:06;31.20;38.60
3548;DHT22;1788;49.400;11.092;2023-06-19T12:52:32;31.20;38.70
3548;DHT22;1788;49.400;11.092;2023-06-19T12:54:59;31.20;38.90
3548;DHT22;1788;49.400;11.092;2023-06-19T12:57:25;31.10;38.90
3548;DHT22;1788;49.400;11.092;2023-06-19T12:59:52;31.00;39.00
3548;DHT22;1788;49.400;11.092;2023-06-19T13:02:19;30.80;39.30
3548;DHT22;1788;49.400;11.092;2023-06-19T13:04:46;30.80;39.30
3548;DHT22;1788;49.400;11.092;2023-06-19T13:07:13;30.70;39.40
3548;DHT22;1788;49.400;11.092;2023-06-19T13:09:40;30.60;39.40
3548;DHT22;1788;49.400;11.092;2023-06-19T13:12:08;30.50;39.70
3548;DHT22;1788;49.400;11.092;2023-06-19T13:14:34;30.50;39.70
3548;DHT22;1788;49.400;11.092;2023-06-19T13:17:01;30.50;39.90
3548;DHT22;1788;49.400;11.092;2023-06-19T13:19:28;30.40;39.90
3548;DHT22;1788;49.400;11.092;2023-06-19T13:21:55;30.40;40.00
3548;DHT22;1788;49.400;11.092;2023-06-19T13:24:22;30.30;40.30
3548;DHT22;1788;49.400;11.092;2023-06-19T13:26:49;30.30;40.40
3548;DHT22;1788;49.400;11.092;2023-06-19T13:29:15;30.30;41.00
3548;DHT22;1788;49.400;11.092;2023-06-19T13:31:42;30.30;41.60
3548;DHT22;1788;49.400;11.092;2023-06-19T13:34:09;30.20;42.00
3548;DHT22;1788;49.400;11.092;2023-06-19T13:36:35;30.10;42.00
3548;DHT22;1788;49.400;11.092;2023-06-19T13:39:03;30.20;42.00
3548;DHT22;1788;49.400;11.092;2023-06-19T13:41:30;30.10;41.90
3548;DHT22;1788;49.400;11.092;2023-06-19T13:43:56;30.40;42.20
3548;DHT22;1788;49.400;11.092;2023-06-19T13:46:23;30.50;41.30
3548;DHT22;1788;49.400;11.092;2023-06-19T13:48:49;30.70;41.10
3548;DHT22;1788;49.400;11.092;2023-06-19T13:51:17;30.80;40.70
3548;DHT22;1788;49.400;11.092;2023-06-19T13:53:43;31.10;40.60
3548;DHT22;1788;49.400;11.092;2023-06-19T13:56:09;31.30;40.40
3548;DHT22;1788;49.400;11.092;2023-06-19T13:58:36;31.40;40.30
3548;DHT22;1788;49.400;11.092;2023-06-19T14:01:03;31.40;40.20
3548;DHT22;1788;49.400;11.092;2023-06-19T14:03:30;31.50;40.20
3548;DHT22;1788;49.400;11.092;2023-06-19T14:05:57;31.20;40.00
3548;DHT22;1788;49.400;11.092;2023-06-19T14:08:24;31.20;40.00
3548;DHT22;1788;49.400;11.092;2023-06-19T14:10:51;31.10;40.30
3548;DHT22;1788;49.400;11.092;2023-06-19T14:13:18;31.10;40.20
3548;DHT22;1788;49.400;11.092;2023-06-19T14:15:44;31.10;40.30
3548;DHT22;1788;49.400;11.092;2023-06-19T14:18:11;31.10;40.50
3548;DHT22;1788;49.400;11.092;2023-06-19T14:20:38;31.00;40.60
3548;DHT22;1788;49.400;11.092;2023-06-19T14:23:05;30.70;40.90
3548;DHT22;1788;49.400;11.092;2023-06-19T14:25:32;30.70;40.90
3548;DHT22;1788;49.400;11.092;2023-06-19T14:27:59;30.30;41.80
3548;DHT22;1788;49.400;11.092;2023-06-19T14:30:26;30.30;41.80
3548;DHT22;1788;49.400;11.092;2023-06-19T14:32:53;29.80;42.80
3548;DHT22;1788;49.400;11.092;2023-06-19T14:35:19;29.70;42.80
3548;DHT22;1788;49.400;11.092;2023-06-19T14:37:46;29.50;43.10
3548;DHT22;1788;49.400;11.092;2023-06-19T14:40:13;29.30;43.50
3548;DHT22;1788;49.400;11.092;2023-06-19T14:42:41;29.00;44.50
3548;DHT22;1788;49.400;11.092;2023-06-19T14:45:07;29.00;44.50
3548;DHT22;1788;49.400;11.092;2023-06-19T14:47:35;28.70;45.20
3548;DHT22;1788;49.400;11.092;2023-06-19T14:50:01;28.70;45.00
3548;DHT22;1788;49.400;11.092;2023-06-19T14:52:29;28.40;45.20
3548;DHT22;1788;49.400;11.092;2023-06-19T14:54:55;28.40;45.40
3548;DHT22;1788;49.400;11.092;2023-06-19T14:57:22;28.40;45.60
3548;DHT22;1788;49.400;11.092;2023-06-19T14:59:48;28.30;45.70
3548;DHT22;1788;49.400;11.092;2023-06-19T15:02:15;28.30;45.90
3548;DHT22;1788;49.400;11.092;2023-06-19T15:04:42;28.20;45.90
3548;DHT22;1788;49.400;11.092;2023-06-19T15:07:08;28.20;46.00
3548;DHT22;1788;49.400;11.092;2023-06-19T15:09:35;28.20;46.10
3548;DHT22;1788;49.400;11.092;2023-06-19T15:12:01;28.10;46.30
3548;DHT22;1788;49.400;11.092;2023-06-19T15:14:29;28.00;46.90
3548;DHT22;1788;49.400;11.092;2023-06-19T15:16:55;28.00;46.90
3548;DHT22;1788;49.400;11.092;2023-06-19T15:19:22;27.90;47.40
3548;DHT22;1788;49.400;11.092;2023-06-19T15:21:49;27.90;48.30
3548;DHT22;1788;49.400;11.092;2023-06-19T15:24:15;27.80;49.20
3548;DHT22;1788;49.400;11.092;2023-06-19T15:26:43;27.60;50.40
3548;DHT22;1788;49.400;11.092;2023-06-19T15:29:10;27.60;50.40
3548;DHT22;1788;49.400;11.092;2023-06-19T15:31:37;27.40;51.30
3548;DHT22;1788;49.400;11.092;2023-06-19T15:34:03;27.30;51.20
3548;DHT22;1788;49.400;11.092;2023-06-19T15:36:30;27.20;51.70
3548;DHT22;1788;49.400;11.092;2023-06-19T15:38:56;27.00;52.20
3548;DHT22;1788;49.400;11.092;2023-06-19T15:41:23;26.80;52.80
3548;DHT22;1788;49.400;11.092;2023-06-19T15:43:51;26.50;54.00
3548;DHT22;1788;49.400;11.092;2023-06-19T15:46:17;26.50;54.00
3548;DHT22;1788;49.400;11.092;2023-06-19T15:48:44;26.40;54.50
3548;DHT22;1788;49.400;11.092;2023-06-19T15:51:11;26.30;55.00
3548;DHT22;1788;49.400;11.092;2023-06-19T15:53:38;26.30;55.40
3548;DHT22;1788;49.400;11.092;2023-06-19T15:56:04;26.20;55.70
3548;DHT22;1788;49.400;11.092;2023-06-19T15:58:31;26.20;56.30
3548;DHT22;1788;49.400;11.092;2023-06-19T16:00:58;26.20;56.30
3548;DHT22;1788;49.400;11.092;2023-06-19T16:03:25;26.30;57.00
3548;DHT22;1788;49.400;11.092;2023-06-19T16:05:52;26.20;57.00
3548;DHT22;1788;49.400;11.092;2023-06-19T16:08:20;26.40;57.80